EST,Max TemperatureF,Mean TemperatureF,Min TemperatureF,Max Dew PointF,MeanDew PointF,Min DewpointF,Max Humidity, Mean Humidity, Min Humidity, Max Sea Level PressureIn, Mean Sea Level PressureIn, Min Sea Level PressureIn, Max VisibilityMiles, Mean VisibilityMiles, Min VisibilityMiles, Max Wind SpeedMPH, Mean Wind SpeedMPH, Max Gust SpeedMPH,PrecipitationIn, CloudCover, Events, WindDirDegrees
2012-12-1,66,50,34,45,39,31,93,78,43,30.43,30.39,30.35,10,6,0,9,1,,0.00,0,Fog,124
2012-12-2,68,52,37,50,41,34,93,81,47,30.43,30.38,30.31,10,5,0,7,1,,0.00,1,Fog,148
2012-12-3,73,60,46,57,51,44,94,83,48,30.33,30.30,30.26,10,5,0,10,4,,0.01,1,Fog,245
2012-12-4,73,60,46,58,51,43,100,84,55,30.37,30.30,30.24,10,6,0,9,1,,0.01,3,Fog,215
2012-12-5,73,64,51,55,52,44,90,70,44,30.22,30.18,30.11,10,10,7,15,8,22,0.05,5,Rain,286
2012-12-6,52,50,48,46,40,37,80,67,57,30.31,30.25,30.20,10,10,9,15,9,20,0.00,8,,41
2012-12-7,64,55,46,61,55,39,94,86,72,30.19,30.05,29.99,10,6,0,7,4,,0.12,7,Fog-Rain,92
2012-12-8,66,60,53,59,56,50,94,87,63,30.10,30.02,29.96,10,4,0,9,2,,0.01,6,Fog-Rain,258
2012-12-9,73,60,48,60,51,46,94,84,52,30.19,30.12,30.03,10,5,0,9,1,,0.00,3,Fog,127
2012-12-10,75,68,62,64,61,53,94,84,60,30.01,29.88,29.80,10,7,1,13,6,20,0.16,6,Rain,182
2012-12-11,70,62,53,65,59,50,90,79,57,30.13,29.94,29.79,10,9,2,13,8,16,0.16,5,Rain,262
2012-12-12,53,48,43,49,44,39,89,85,81,30.27,30.21,30.11,10,7,3,16,11,25,0.48,8,Rain,21
2012-12-13,53,48,43,43,40,37,86,79,69,30.33,30.27,30.16,10,8,1,17,12,23,0.33,6,Rain,1
2012-12-14,60,48,35,40,36,31,89,72,46,30.38,30.30,30.26,10,10,3,9,5,,0.00,0,,357
2012-12-15,60,48,35,47,38,30,93,79,53,30.28,30.22,30.11,10,7,1,6,1,,0.00,4,,28
2012-12-16,63,58,53,59,55,47,94,89,80,30.12,30.04,29.92,10,6,0,8,3,,0.08,7,Fog-Rain,232
2012-12-17,64,60,57,61,58,54,94,88,80,29.92,29.84,29.70,10,9,2,13,5,,0.36,8,Rain,254
2012-12-18,64,54,44,54,48,36,90,72,50,29.95,29.78,29.70,10,10,10,20,9,28,0.01,2,,257
2012-12-19,66,52,37,41,36,33,86,65,33,30.14,30.04,29.94,10,10,10,9,4,,0.00,0,,256
2012-12-20,68,54,41,61,50,37,89,74,60,30.19,29.94,29.58,10,9,2,26,8,40,0.17,4,Rain,137
2012-12-21,66,54,39,63,36,20,88,57,40,29.85,29.66,29.50,10,9,2,26,19,43,0.13,3,Rain,258
2012-12-22,50,42,33,25,23,20,64,51,32,30.13,30.02,29.85,10,10,10,20,11,30,0.00,0,,272
2012-12-23,55,41,27,36,26,18,81,54,23,30.22,30.13,30.08,10,10,10,9,5,,0.00,0,,220
2012-12-24,64,54,45,45,35,27,89,55,25,30.11,30.03,29.96,10,10,10,9,5,,0.02,2,Rain,227
2012-12-25,62,53,44,48,44,40,87,74,53,30.14,30.06,29.97,10,10,10,10,5,,0.00,3,,51
2012-12-26,66,57,48,63,54,36,94,83,56,30.05,29.71,29.46,10,6,1,28,12,50,1.57,7,Rain-Thunderstorm,147
2012-12-27,53,46,39,35,32,30,79,61,41,30.07,29.90,29.68,10,10,10,20,13,30,0.00,0,,288
2012-12-28,48,39,30,36,30,25,85,64,46,30.21,30.12,30.05,10,10,10,7,4,,0.00,2,,44
2012-12-29,52,47,42,46,40,32,90,79,60,30.01,29.77,29.64,10,8,2,24,8,33,0.96,7,Rain,324
2012-12-30,48,40,32,28,23,19,70,53,32,30.42,30.29,30.04,10,10,10,23,12,29,0.00,0,,291
2012-12-31,54,40,26,38,28,22,85,62,30,30.43,30.32,30.18,10,10,10,8,3,,0.00,1,,227